Time;durP1;ratioP1;P1;durP2;ratioP2;P2;SDS_P1;SDS_P2;PMS_P1;PMS_P2;Temp;Humidity;BMP_temperature;BMP_pressure;BME280_temperature;BME280_humidity;BME280_pressure;Samples;Min_cycle;Max_cycle;Signal;HPM_P1;HPM_P2
2022/02/13 00:02:14;;;;;;;17.75;15.15;;;0.30;99.90;;;;;;5125253;27;20387;-82
2022/02/13 00:04:40;;;;;;;18.25;14.18;;;0.40;99.90;;;;;;5116351;27;20707;-85
2022/02/13 00:07:05;;;;;;;16.43;14.03;;;0.40;99.90;;;;;;5117131;27;20812;-83
2022/02/13 00:09:31;;;;;;;17.50;13.70;;;0.50;99.90;;;;;;5124532;27;20369;-83
2022/02/13 00:12:02;;;;;;;17.77;14.75;;;0.50;99.90;;;;;;5113731;27;21480;-83
2022/02/13 00:14:29;;;;;;;16.33;14.20;;;0.50;99.90;;;;;;5111383;28;20370;-82
2022/02/13 00:16:55;;;;;;;16.70;14.35;;;0.60;99.90;;;;;;5109363;28;20381;-84
2022/02/13 00:19:21;;;;;;;16.25;14.57;;;0.60;99.90;;;;;;5109953;28;20371;-83
2022/02/13 00:21:46;;;;;;;15.73;14.13;;;0.60;99.90;;;;;;5110992;28;20379;-82
2022/02/13 00:24:12;;;;;;;17.50;15.10;;;0.60;99.90;;;;;;5110449;28;20371;-83
2022/02/13 00:26:38;;;;;;;16.60;14.32;;;0.70;99.90;;;;;;5109923;28;20407;-83
2022/02/13 00:29:04;;;;;;;16.65;14.90;;;0.70;99.90;;;;;;5110501;28;20371;-82
2022/02/13 00:31:30;;;;;;;17.27;14.80;;;0.60;99.90;;;;;;5092232;28;20438;-84
2022/02/13 00:33:56;;;;;;;17.52;14.73;;;0.70;99.90;;;;;;5091479;28;20394;-83
2022/02/13 00:36:22;;;;;;;16.60;14.57;;;0.70;99.90;;;;;;5109511;28;20379;-84
2022/02/13 00:38:48;;;;;;;16.83;14.95;;;0.70;99.90;;;;;;5092571;28;20444;-82
2022/02/13 00:41:16;;;;;;;19.15;14.98;;;0.60;99.90;;;;;;5092735;28;20381;-84
2022/02/13 00:43:42;;;;;;;19.95;14.70;;;0.60;99.90;;;;;;5092127;28;20367;-83
2022/02/13 00:46:08;;;;;;;17.30;14.98;;;0.50;99.90;;;;;;5109385;28;20379;-82
2022/02/13 00:48:34;;;;;;;17.60;15.00;;;0.50;99.90;;;;;;5109032;28;20371;-83
2022/02/13 00:51:00;;;;;;;16.75;14.88;;;0.50;99.90;;;;;;5109141;28;20355;-82
2022/02/13 00:53:25;;;;;;;16.95;14.77;;;0.40;99.90;;;;;;5108655;28;20375;-82
2022/02/13 00:55:51;;;;;;;17.42;15.63;;;0.40;99.90;;;;;;5109036;28;20888;-83
2022/02/13 00:58:16;;;;;;;17.77;15.13;;;0.30;99.90;;;;;;5109383;28;20358;-82
2022/02/13 01:00:42;;;;;;;18.93;16.17;;;0.40;99.90;;;;;;5091600;28;20427;-83
2022/02/13 01:03:08;;;;;;;18.38;15.32;;;0.30;99.90;;;;;;5109418;28;20766;-83
2022/02/13 01:05:33;;;;;;;17.23;15.30;;;0.30;99.90;;;;;;5111203;28;20443;-82
2022/02/13 01:07:59;;;;;;;18.48;15.52;;;0.30;99.90;;;;;;5092915;28;20370;-83
2022/02/13 01:10:25;;;;;;;18.80;15.43;;;0.20;99.90;;;;;;5110775;28;20377;-83
2022/02/13 01:12:50;;;;;;;18.77;15.93;;;0.20;99.90;;;;;;5111089;28;20406;-82
2022/02/13 01:15:16;;;;;;;17.43;15.07;;;0.10;99.90;;;;;;5092796;28;20880;-83
2022/02/13 01:17:42;;;;;;;16.83;14.98;;;0.10;99.90;;;;;;5110876;28;20380;-83
2022/02/13 01:20:09;;;;;;;17.27;15.25;;;0.10;99.90;;;;;;5093764;28;20379;-84
2022/02/13 01:22:34;;;;;;;18.42;15.27;;;0.10;99.90;;;;;;5112412;28;20367;-83
2022/02/13 01:25:02;;;;;;;16.67;14.10;;;0.10;99.90;;;;;;5094378;28;20383;-82
2022/02/13 01:27:28;;;;;;;19.63;16.02;;;0.10;99.90;;;;;;5093764;28;20869;-83
2022/02/13 01:29:53;;;;;;;17.50;15.30;;;0.10;99.90;;;;;;5112582;28;20374;-82
2022/02/13 01:32:19;;;;;;;18.45;14.98;;;0.10;99.90;;;;;;5112193;28;20829;-84
2022/02/13 01:34:44;;;;;;;16.25;14.55;;;0.00;99.90;;;;;;5111317;28;20793;-83
2022/02/13 01:37:10;;;;;;;16.67;13.87;;;0.00;99.90;;;;;;5110959;28;20933;-83
2022/02/13 01:39:36;;;;;;;18.47;15.30;;;0.00;99.90;;;;;;5112364;28;20439;-83
2022/02/13 01:42:03;;;;;;;17.93;15.47;;;-0.10;99.90;;;;;;5111583;28;20419;-83
2022/02/13 01:44:34;;;;;;;18.13;15.73;;;-0.10;99.90;;;;;;5093663;28;20383;-82
2022/02/13 01:47:01;;;;;;;17.33;15.10;;;-0.20;99.90;;;;;;5112746;28;20517;-83
2022/02/13 01:49:27;;;;;;;16.80;15.00;;;-0.20;99.90;;;;;;5112736;28;20386;-84
2022/02/13 01:51:59;;;;;;;16.17;14.47;;;-0.20;99.90;;;;;;5094802;28;20397;-83
2022/02/13 01:54:24;;;;;;;19.57;15.37;;;-0.30;99.90;;;;;;5094026;28;20839;-83
2022/02/13 01:56:51;;;;;;;17.20;14.60;;;-0.30;99.90;;;;;;5111810;28;20442;-83
2022/02/13 01:59:16;;;;;;;16.42;14.52;;;-0.30;99.90;;;;;;5111640;28;20390;-82
2022/02/13 02:01:42;;;;;;;15.80;14.10;;;-0.40;99.90;;;;;;5093604;28;20385;-83
2022/02/13 02:04:08;;;;;;;18.98;14.70;;;-0.40;99.90;;;;;;5093616;28;20375;-83
2022/02/13 02:06:35;;;;;;;15.75;14.05;;;-0.40;99.90;;;;;;5111570;28;20379;-83
2022/02/13 02:09:02;;;;;;;19.15;15.98;;;-0.50;99.90;;;;;;5111349;28;20401;-83
2022/02/13 02:11:28;;;;;;;16.80;14.95;;;-0.40;99.90;;;;;;5111717;28;20497;-83
2022/02/13 02:13:54;;;;;;;18.13;14.95;;;-0.50;99.90;;;;;;5111826;28;20414;-83
2022/02/13 02:16:19;;;;;;;16.60;14.60;;;-0.50;99.90;;;;;;5093064;28;20389;-84
2022/02/13 02:18:45;;;;;;;16.95;15.15;;;-0.50;99.90;;;;;;5112097;28;20739;-83
2022/02/13 02:21:11;;;;;;;15.88;14.02;;;-0.50;99.90;;;;;;5111741;28;20373;-83
2022/02/13 02:23:39;;;;;;;16.30;14.60;;;-0.50;99.90;;;;;;5111736;28;20883;-83
2022/02/13 02:26:05;;;;;;;16.92;13.85;;;-0.50;99.90;;;;;;5093162;28;20386;-84
2022/02/13 02:28:31;;;;;;;16.23;14.15;;;-0.40;99.90;;;;;;5113552;28;20435;-83
2022/02/13 02:30:57;;;;;;;17.80;14.87;;;-0.40;99.90;;;;;;5115337;28;20461;-84
2022/02/13 02:33:23;;;;;;;16.00;14.07;;;-0.40;99.90;;;;;;5096122;28;20378;-85
2022/02/13 02:35:48;;;;;;;18.20;13.97;;;-0.30;99.90;;;;;;5113615;28;20379;-84
2022/02/13 02:38:14;;;;;;;16.63;14.93;;;-0.30;99.90;;;;;;5095486;28;20404;-83
2022/02/13 02:40:41;;;;;;;16.33;13.52;;;-0.30;99.90;;;;;;5112945;28;20394;-85
2022/02/13 02:43:07;;;;;;;17.10;13.48;;;-0.40;99.90;;;;;;5113753;28;20380;-84
2022/02/13 02:45:33;;;;;;;15.97;14.03;;;-0.30;99.90;;;;;;5113624;28;20379;-84
2022/02/13 02:47:58;;;;;;;17.13;14.63;;;-0.30;99.90;;;;;;5095431;28;20851;-83
2022/02/13 02:50:24;;;;;;;17.50;13.77;;;-0.30;99.90;;;;;;5095461;28;20878;-84
2022/02/13 02:52:50;;;;;;;17.17;13.68;;;-0.30;99.90;;;;;;5113380;28;20401;-84
2022/02/13 02:55:15;;;;;;;16.70;13.67;;;-0.30;99.90;;;;;;5113096;28;20370;-84
2022/02/13 02:57:41;;;;;;;16.77;13.73;;;-0.20;99.90;;;;;;5095114;28;20406;-84
2022/02/13 03:00:07;;;;;;;16.40;13.30;;;-0.20;99.90;;;;;;5113085;28;20402;-83
2022/02/13 03:02:34;;;;;;;16.40;13.73;;;-0.20;99.90;;;;;;5095211;28;20387;-84
2022/02/13 03:04:59;;;;;;;17.60;14.20;;;-0.20;99.90;;;;;;5113040;28;20436;-83
2022/02/13 03:07:25;;;;;;;15.88;14.18;;;-0.20;99.90;;;;;;5112727;28;20379;-83
2022/02/13 03:09:50;;;;;;;16.77;13.52;;;-0.20;99.90;;;;;;5112696;28;20852;-83
2022/02/13 03:12:16;;;;;;;14.25;12.68;;;-0.10;99.90;;;;;;5112690;28;20408;-84
2022/02/13 03:14:42;;;;;;;15.10;13.50;;;-0.10;99.90;;;;;;5111837;28;20375;-83
2022/02/13 03:17:08;;;;;;;15.50;13.90;;;-0.10;99.90;;;;;;5094127;28;20382;-84
2022/02/13 03:19:34;;;;;;;16.00;14.00;;;-0.10;99.90;;;;;;5094643;28;20394;-83
2022/02/13 03:22:00;;;;;;;15.20;13.32;;;0.00;99.90;;;;;;5113200;28;20363;-84
2022/02/13 03:24:26;;;;;;;16.03;13.20;;;0.00;99.90;;;;;;5094648;28;20366;-84
2022/02/13 03:26:51;;;;;;;14.83;13.23;;;0.00;99.90;;;;;;5112176;28;20386;-83
2022/02/13 03:29:17;;;;;;;15.10;13.50;;;0.00;99.90;;;;;;5094218;28;20796;-84
2022/02/13 03:31:43;;;;;;;14.80;13.20;;;0.00;99.90;;;;;;5111826;28;20511;-84
2022/02/13 03:34:09;;;;;;;14.30;12.73;;;0.00;99.90;;;;;;5094042;28;20379;-84
2022/02/13 03:36:35;;;;;;;14.43;12.88;;;0.10;99.90;;;;;;5093813;28;20395;-84
2022/02/13 03:39:01;;;;;;;16.83;13.95;;;0.10;99.90;;;;;;5111234;28;20528;-83
2022/02/13 03:41:27;;;;;;;15.30;13.68;;;0.10;99.90;;;;;;5112058;28;20494;-84
2022/02/13 03:43:52;;;;;;;15.27;13.60;;;0.10;99.90;;;;;;5093685;28;20375;-84
2022/02/13 03:46:18;;;;;;;15.73;13.03;;;0.10;99.90;;;;;;5112505;28;20370;-84
2022/02/13 03:48:43;;;;;;;15.60;13.27;;;0.10;99.90;;;;;;5093528;28;20929;-84
2022/02/13 03:51:09;;;;;;;15.30;13.23;;;0.00;99.90;;;;;;5093741;28;20775;-83
2022/02/13 03:53:35;;;;;;;15.20;13.10;;;0.00;99.90;;;;;;5093879;28;20972;-84
2022/02/13 03:56:01;;;;;;;15.23;13.02;;;0.00;99.90;;;;;;5093666;28;20432;-84
2022/02/13 03:58:26;;;;;;;14.33;12.80;;;-0.10;99.90;;;;;;5113192;28;20379;-84
2022/02/13 04:00:52;;;;;;;16.45;13.73;;;-0.10;99.90;;;;;;5112899;28;20367;-83
2022/02/13 04:03:17;;;;;;;15.18;13.27;;;-0.10;99.90;;;;;;5094582;28;20375;-84
2022/02/13 04:05:43;;;;;;;15.60;13.18;;;-0.20;99.90;;;;;;5112097;28;20399;-84
2022/02/13 04:08:09;;;;;;;16.50;13.27;;;-0.20;99.90;;;;;;5111725;28;20417;-83
2022/02/13 04:10:35;;;;;;;16.25;13.40;;;-0.20;99.90;;;;;;5112410;28;20362;-83
2022/02/13 04:13:01;;;;;;;15.02;13.18;;;-0.20;99.90;;;;;;5112258;28;20979;-83
2022/02/13 04:15:27;;;;;;;16.98;13.82;;;-0.20;99.90;;;;;;5112367;28;20363;-84
2022/02/13 04:17:53;;;;;;;16.05;13.68;;;-0.20;99.90;;;;;;5112088;28;20418;-84
2022/02/13 04:20:21;;;;;;;15.38;13.63;;;-0.30;99.90;;;;;;5093799;28;20391;-83
2022/02/13 04:22:47;;;;;;;14.93;13.07;;;-0.30;99.90;;;;;;5094796;28;20770;-84
2022/02/13 04:25:13;;;;;;;15.97;14.27;;;-0.50;99.90;;;;;;5093981;28;20411;-84
2022/02/13 04:27:39;;;;;;;16.63;14.40;;;-0.50;99.90;;;;;;5113606;28;20911;-83
2022/02/13 04:30:06;;;;;;;17.03;14.70;;;-0.60;99.90;;;;;;5096590;28;20410;-84
2022/02/13 04:32:32;;;;;;;17.02;14.77;;;-0.60;99.90;;;;;;5115031;28;20399;-84
2022/02/13 04:34:58;;;;;;;16.00;13.63;;;-0.60;99.90;;;;;;5114523;28;20370;-84
2022/02/13 04:37:23;;;;;;;16.60;14.57;;;-0.60;99.90;;;;;;5096465;28;20374;-83
2022/02/13 04:39:49;;;;;;;17.50;13.98;;;-0.60;99.90;;;;;;5095883;28;20398;-82
2022/02/13 04:42:16;;;;;;;16.05;14.30;;;-0.60;99.90;;;;;;5114071;28;20367;-83
2022/02/13 04:44:44;;;;;;;16.35;14.05;;;-0.60;99.90;;;;;;5113199;28;20460;-83
2022/02/13 04:47:10;;;;;;;16.00;14.23;;;-0.60;99.90;;;;;;5113591;28;20381;-84
2022/02/13 04:49:36;;;;;;;16.20;14.50;;;-0.60;99.90;;;;;;5094781;28;20391;-84
2022/02/13 04:52:03;;;;;;;15.93;14.15;;;-0.60;99.90;;;;;;5094316;28;21084;-84
2022/02/13 04:54:28;;;;;;;17.23;14.83;;;-0.60;99.90;;;;;;5112910;28;20458;-84
2022/02/13 04:56:54;;;;;;;15.57;13.97;;;-0.60;99.90;;;;;;5112945;28;20383;-84
2022/02/13 04:59:20;;;;;;;16.97;14.63;;;-0.60;99.90;;;;;;5113591;28;20806;-83
2022/02/13 05:01:45;;;;;;;15.73;13.93;;;-0.60;99.90;;;;;;5114116;28;20386;-83
2022/02/13 05:04:11;;;;;;;16.83;14.57;;;-0.50;99.90;;;;;;5095270;28;20371;-85
2022/02/13 05:06:36;;;;;;;17.10;13.82;;;-0.50;99.90;;;;;;5112985;28;20927;-84
2022/02/13 05:09:03;;;;;;;16.05;13.98;;;-0.50;99.90;;;;;;5113116;28;20374;-84
2022/02/13 05:11:29;;;;;;;18.77;14.68;;;-0.60;99.90;;;;;;5113340;28;20409;-84
2022/02/13 05:13:55;;;;;;;17.02;13.90;;;-0.60;99.90;;;;;;5114397;28;20744;-84
2022/02/13 05:16:20;;;;;;;16.13;14.05;;;-0.50;99.90;;;;;;5113579;28;20374;-84
2022/02/13 05:18:46;;;;;;;17.55;14.38;;;-0.50;99.90;;;;;;5114195;28;20460;-84
2022/02/13 05:21:12;;;;;;;15.57;13.70;;;-0.60;99.90;;;;;;5113126;28;20371;-84
2022/02/13 05:23:37;;;;;;;15.43;13.83;;;-0.50;99.90;;;;;;5113661;28;20367;-85
2022/02/13 05:26:03;;;;;;;17.13;14.07;;;-0.50;99.90;;;;;;5113397;28;20788;-85
2022/02/13 05:28:29;;;;;;;16.50;13.93;;;-0.50;99.90;;;;;;5112406;28;20379;-84
2022/02/13 05:30:55;;;;;;;16.02;13.55;;;-0.50;99.90;;;;;;5094446;28;20853;-84
2022/02/13 05:33:21;;;;;;;15.13;13.50;;;-0.50;99.90;;;;;;5094086;28;20436;-85
2022/02/13 05:35:47;;;;;;;15.52;13.85;;;-0.50;99.90;;;;;;5113302;28;20371;-82
2022/02/13 05:38:12;;;;;;;16.35;14.13;;;-0.50;99.90;;;;;;5111648;28;20454;-85
2022/02/13 05:40:39;;;;;;;15.80;13.70;;;-0.60;99.90;;;;;;5110897;28;20426;-84
2022/02/13 05:43:04;;;;;;;16.67;14.05;;;-0.60;99.90;;;;;;5111239;28;20385;-83
2022/02/13 05:45:30;;;;;;;16.37;14.60;;;-0.60;99.90;;;;;;5111217;28;20453;-85
2022/02/13 05:47:56;;;;;;;16.13;14.05;;;-0.60;99.90;;;;;;5092469;28;20378;-84
2022/02/13 05:50:21;;;;;;;16.73;14.05;;;-0.60;99.90;;;;;;5110910;28;20392;-84
2022/02/13 05:52:47;;;;;;;15.93;14.23;;;-0.70;99.90;;;;;;5110445;28;20960;-84
2022/02/13 05:55:13;;;;;;;15.93;14.20;;;-0.60;99.90;;;;;;5110502;28;20387;-85
2022/02/13 05:57:45;;;;;;;18.57;14.87;;;-0.60;99.90;;;;;;5110505;28;20385;-84
2022/02/13 06:00:12;;;;;;;19.25;15.45;;;-0.60;99.90;;;;;;5111459;28;20367;-85
2022/02/13 06:02:39;;;;;;;15.57;13.63;;;-0.60;99.90;;;;;;5091703;28;20379;-85
2022/02/13 06:05:05;;;;;;;15.75;14.05;;;-0.60;99.90;;;;;;5092925;28;20375;-84
2022/02/13 06:07:39;;;;;;;17.42;14.13;;;-0.60;99.90;;;;;;5109595;28;20432;-84
2022/02/13 06:10:07;;;;;;;16.95;14.07;;;-0.60;99.90;;;;;;5092246;28;20383;-84
2022/02/13 06:12:32;;;;;;;16.00;14.25;;;-0.70;99.90;;;;;;5109346;28;20399;-83
2022/02/13 06:14:58;;;;;;;18.00;14.95;;;-0.60;99.90;;;;;;5091652;28;20375;-84
2022/02/13 06:17:23;;;;;;;17.17;15.15;;;-0.60;99.90;;;;;;5090976;28;20839;-84
2022/02/13 06:19:49;;;;;;;17.63;14.43;;;-0.60;99.90;;;;;;5091355;28;20375;-85
2022/02/13 06:22:15;;;;;;;17.13;14.37;;;-0.70;99.90;;;;;;5091307;28;20387;-85
2022/02/13 06:24:40;;;;;;;16.77;14.63;;;-0.70;99.90;;;;;;5108412;28;20367;-85
2022/02/13 06:27:06;;;;;;;16.87;14.03;;;-0.70;99.90;;;;;;5108891;28;20363;-84
2022/02/13 06:29:32;;;;;;;18.20;14.53;;;-0.70;99.90;;;;;;5090578;28;20768;-84
2022/02/13 06:31:57;;;;;;;18.35;14.07;;;-0.70;99.90;;;;;;5090305;28;20896;-83
2022/02/13 06:34:23;;;;;;;19.10;14.60;;;-0.60;99.90;;;;;;5090628;28;20371;-84
2022/02/13 06:36:49;;;;;;;17.20;14.55;;;-0.70;99.90;;;;;;5108033;28;20371;-82
2022/02/13 06:39:14;;;;;;;17.10;14.43;;;-0.60;99.90;;;;;;5108772;28;20375;-84
2022/02/13 06:41:40;;;;;;;17.38;15.15;;;-0.60;99.90;;;;;;5108072;28;20457;-83
2022/02/13 06:44:06;;;;;;;16.43;14.67;;;-0.60;99.90;;;;;;5090181;28;20367;-83
2022/02/13 06:46:31;;;;;;;17.33;14.60;;;-0.60;99.90;;;;;;5089936;28;20902;-85
2022/02/13 06:48:57;;;;;;;16.87;14.37;;;-0.60;99.90;;;;;;5108953;28;20378;-84
2022/02/13 06:51:22;;;;;;;16.50;14.23;;;-0.60;99.90;;;;;;5089930;28;20520;-84
2022/02/13 06:53:48;;;;;;;14.98;13.13;;;-0.60;99.90;;;;;;5108363;28;20384;-84
2022/02/13 06:56:14;;;;;;;17.10;13.98;;;-0.60;99.90;;;;;;5090043;28;20398;-84
2022/02/13 06:58:40;;;;;;;17.63;14.88;;;-0.50;99.90;;;;;;5108461;28;20370;-83
2022/02/13 07:01:09;;;;;;;15.67;13.63;;;-0.50;99.90;;;;;;5108782;28;20394;-84
2022/02/13 07:03:35;;;;;;;16.77;14.35;;;-0.40;99.90;;;;;;5090275;28;20382;-85
2022/02/13 07:06:02;;;;;;;18.15;15.75;;;-0.40;99.90;;;;;;5090718;28;20691;-85
2022/02/13 07:08:29;;;;;;;16.60;14.80;;;-0.30;99.90;;;;;;5090165;28;20402;-86
2022/02/13 07:10:54;;;;;;;17.63;15.38;;;-0.30;99.90;;;;;;5109291;28;20383;-85
2022/02/13 07:13:20;;;;;;;17.85;15.63;;;-0.20;99.90;;;;;;5109391;28;20873;-84
2022/02/13 07:15:45;;;;;;;18.83;15.00;;;-0.20;99.90;;;;;;5114932;28;20363;-84
2022/02/13 07:18:11;;;;;;;16.10;14.00;;;-0.10;99.90;;;;;;5114000;28;20386;-83
2022/02/13 07:20:38;;;;;;;16.00;13.07;;;0.00;99.90;;;;;;5095006;28;20880;-83
2022/02/13 07:23:03;;;;;;;14.23;12.60;;;0.10;99.90;;;;;;5114296;28;20698;-83
2022/02/13 07:25:29;;;;;;;16.98;12.93;;;0.30;99.90;;;;;;5113724;28;20431;-83
2022/02/13 07:27:55;;;;;;;16.52;13.23;;;0.30;99.90;;;;;;5094496;28;20406;-83
2022/02/13 07:30:21;;;;;;;14.40;12.23;;;0.40;99.90;;;;;;5095704;28;20448;-84
2022/02/13 07:32:46;;;;;;;14.50;12.45;;;0.50;99.90;;;;;;5095773;28;20387;-81
2022/02/13 07:35:14;;;;;;;13.30;11.70;;;0.50;99.90;;;;;;5095597;28;20402;-81
2022/02/13 07:37:40;;;;;;;14.40;12.55;;;0.60;99.90;;;;;;5093948;28;20387;-81
2022/02/13 07:40:06;;;;;;;14.95;12.15;;;0.60;99.90;;;;;;5093622;28;20958;-81
2022/02/13 07:42:32;;;;;;;13.70;12.20;;;0.70;99.90;;;;;;5093404;28;20382;-82
2022/02/13 07:44:57;;;;;;;14.35;11.88;;;0.70;99.90;;;;;;5112329;28;20367;-82
2022/02/13 07:47:24;;;;;;;14.45;11.93;;;0.80;99.90;;;;;;5111362;28;20367;-81
2022/02/13 07:49:50;;;;;;;12.75;11.40;;;0.80;99.90;;;;;;5111539;28;20435;-80
2022/02/13 07:52:15;;;;;;;13.97;11.47;;;1.00;99.90;;;;;;5093094;28;20407;-81
2022/02/13 07:54:41;;;;;;;13.47;11.53;;;1.10;99.90;;;;;;5111906;28;20363;-81
2022/02/13 07:57:07;;;;;;;16.08;11.55;;;1.20;99.90;;;;;;5112110;28;21074;-81
2022/02/13 07:59:33;;;;;;;14.10;11.97;;;1.30;99.90;;;;;;5111266;28;20440;-81
2022/02/13 08:02:00;;;;;;;13.87;11.20;;;1.50;99.90;;;;;;5093087;28;20454;-81
2022/02/13 08:04:26;;;;;;;15.68;12.02;;;1.60;99.90;;;;;;5111059;28;20440;-81
2022/02/13 08:06:52;;;;;;;13.05;11.70;;;1.60;99.90;;;;;;5111219;28;20379;-81
2022/02/13 08:09:18;;;;;;;13.30;11.20;;;1.80;99.90;;;;;;5111653;28;21247;-81
2022/02/13 08:11:43;;;;;;;12.57;10.68;;;1.90;99.90;;;;;;5111122;28;20451;-81
2022/02/13 08:14:09;;;;;;;12.65;10.65;;;1.90;99.90;;;;;;5111430;28;20428;-81
2022/02/13 08:16:35;;;;;;;11.52;10.27;;;2.00;99.90;;;;;;5110515;28;20379;-80
2022/02/13 08:19:00;;;;;;;12.65;10.68;;;2.10;99.90;;;;;;5093236;28;20957;-82
2022/02/13 08:21:26;;;;;;;13.57;10.65;;;2.20;99.90;;;;;;5111594;28;20367;-81
2022/02/13 08:23:53;;;;;;;11.73;10.10;;;2.10;99.90;;;;;;5111710;28;20370;-81
2022/02/13 08:26:19;;;;;;;13.85;10.27;;;2.20;99.90;;;;;;5109655;28;20394;-81
2022/02/13 08:28:45;;;;;;;12.48;10.70;;;2.20;99.90;;;;;;5092852;28;20458;-81
2022/02/13 08:31:13;;;;;;;12.32;10.40;;;2.30;99.90;;;;;;5093079;28;20404;-81
2022/02/13 08:33:39;;;;;;;12.63;10.38;;;2.30;99.90;;;;;;5112533;28;20382;-82
2022/02/13 08:36:05;;;;;;;11.53;10.27;;;2.30;99.90;;;;;;5093360;28;20368;-81
2022/02/13 08:38:31;;;;;;;12.63;11.00;;;2.30;99.90;;;;;;5093490;28;20411;-81
2022/02/13 08:40:56;;;;;;;12.07;10.20;;;2.40;99.90;;;;;;5110780;28;20499;-81
2022/02/13 08:43:22;;;;;;;11.33;9.80;;;2.50;99.90;;;;;;5111562;28;20405;-81
2022/02/13 08:45:50;;;;;;;12.82;10.38;;;2.60;99.90;;;;;;5111015;28;20856;-81
2022/02/13 08:48:18;;;;;;;11.67;9.83;;;2.90;99.90;;;;;;5111547;28;20454;-80
2022/02/13 08:50:45;;;;;;;12.68;10.25;;;2.90;99.90;;;;;;5112563;28;20741;-83
2022/02/13 08:53:10;;;;;;;11.63;9.65;;;2.90;99.90;;;;;;5111745;28;20422;-82
2022/02/13 08:55:37;;;;;;;13.70;9.80;;;2.90;99.90;;;;;;5110987;28;20868;-81
2022/02/13 08:58:03;;;;;;;11.70;9.63;;;3.00;99.90;;;;;;5092388;28;20371;-81
2022/02/13 09:00:31;;;;;;;12.20;9.80;;;3.00;99.90;;;;;;5111024;28;20393;-81
2022/02/13 09:02:58;;;;;;;10.90;9.30;;;3.10;99.90;;;;;;5110625;28;20398;-81
2022/02/13 09:05:24;;;;;;;11.38;10.23;;;3.20;99.90;;;;;;5092525;28;20428;-81
2022/02/13 09:07:50;;;;;;;11.82;9.55;;;3.50;99.90;;;;;;5111295;28;20470;-82
2022/02/13 09:10:16;;;;;;;11.17;9.37;;;3.40;99.90;;;;;;5108720;28;20469;-83
2022/02/13 09:12:43;;;;;;;14.07;9.85;;;3.60;99.90;;;;;;5080904;28;20394;-82
2022/02/13 09:15:09;;;;;;;10.63;9.38;;;3.50;99.90;;;;;;5111388;28;20941;-81
2022/02/13 09:17:35;;;;;;;11.50;9.40;;;3.60;99.90;;;;;;5098416;28;20391;-82
2022/02/13 09:20:01;;;;;;;11.73;9.63;;;3.60;99.90;;;;;;5091889;28;20377;-81
2022/02/13 09:22:27;;;;;;;10.38;9.38;;;3.70;99.90;;;;;;5090385;28;20870;-82
2022/02/13 09:24:52;;;;;;;9.90;8.87;;;3.90;99.90;;;;;;5092126;28;20459;-81
2022/02/13 09:27:18;;;;;;;11.10;8.77;;;4.10;99.90;;;;;;5073265;28;20419;-82
2022/02/13 09:29:44;;;;;;;12.07;9.07;;;4.20;99.90;;;;;;5085640;28;20483;-81
2022/02/13 09:32:10;;;;;;;11.53;8.80;;;4.30;99.90;;;;;;5097483;28;20429;-82
2022/02/13 09:34:36;;;;;;;12.47;9.67;;;4.30;99.90;;;;;;5098254;28;20382;-82
2022/02/13 09:37:01;;;;;;;10.03;9.00;;;4.30;99.90;;;;;;5117268;28;20433;-82
2022/02/13 09:39:28;;;;;;;11.15;9.02;;;4.40;99.90;;;;;;5115020;28;20466;-83
2022/02/13 09:41:54;;;;;;;11.15;9.50;;;4.50;99.90;;;;;;5118653;27;20398;-83
2022/02/13 09:44:20;;;;;;;10.53;9.03;;;4.50;99.90;;;;;;5137142;27;20886;-82
2022/02/13 09:46:46;;;;;;;9.75;8.65;;;4.60;99.90;;;;;;5136103;27;20429;-81
2022/02/13 09:49:12;;;;;;;9.27;8.20;;;4.70;99.90;;;;;;5126990;27;20374;-82
2022/02/13 09:51:38;;;;;;;9.15;8.07;;;4.70;99.90;;;;;;5096145;28;20498;-82
2022/02/13 09:54:05;;;;;;;10.07;8.23;;;4.80;99.90;;;;;;5112632;28;20457;-82
2022/02/13 09:56:31;;;;;;;10.05;8.38;;;4.90;99.90;;;;;;5112607;28;20398;-82
2022/02/13 09:58:58;;;;;;;8.77;7.70;;;4.80;99.90;;;;;;5095407;28;20444;-82
2022/02/13 10:01:38;;;;;;;9.77;8.00;;;5.00;99.90;;;;;;5092258;28;20960;-83
2022/02/13 10:04:06;;;;;;;10.82;7.97;;;5.10;99.90;;;;;;5110298;28;21189;-82
2022/02/13 10:06:36;;;;;;;8.98;7.97;;;5.30;99.90;;;;;;5114061;28;20878;-82
2022/02/13 10:09:04;;;;;;;9.33;8.00;;;5.50;99.90;;;;;;5090827;28;20375;-84
2022/02/13 10:11:35;;;;;;;9.73;7.43;;;5.40;99.90;;;;;;5112953;28;20418;-82
2022/02/13 10:14:06;;;;;;;11.52;7.97;;;5.30;99.90;;;;;;5116277;28;20453;-81
2022/02/13 10:16:37;;;;;;;9.07;8.17;;;5.40;99.90;;;;;;5097269;28;20383;-82
2022/02/13 10:19:07;;;;;;;10.37;8.13;;;5.40;99.90;;;;;;5098522;28;20821;-82
2022/02/13 10:21:50;;;;;;;9.77;7.82;;;5.30;99.90;;;;;;5115170;28;20458;-82
2022/02/13 10:24:26;;;;;;;10.45;7.75;;;5.50;99.90;;;;;;5078303;28;20392;-82
2022/02/13 10:26:57;;;;;;;8.82;7.30;;;5.40;99.90;;;;;;5076945;28;20376;-82
2022/02/13 10:29:27;;;;;;;10.93;7.57;;;5.40;99.90;;;;;;5115468;28;20844;-82
2022/02/13 10:32:20;;;;;;;10.48;7.72;;;5.50;99.90;;;;;;5112781;28;20394;-81
2022/02/13 10:35:05;;;;;;;8.45;7.55;;;5.50;99.90;;;;;;5083143;28;20953;-81
2022/02/13 10:37:40;;;;;;;9.02;7.70;;;5.40;99.90;;;;;;5096090;28;20457;-82
2022/02/13 10:40:07;;;;;;;8.57;7.55;;;5.40;99.90;;;;;;5090547;28;20787;-81
2022/02/13 10:42:33;;;;;;;10.97;7.30;;;5.40;99.90;;;;;;5101432;28;20392;-81
2022/02/13 10:45:25;;;;;;;10.07;7.73;;;5.50;99.90;;;;;;5092336;28;20372;-81
2022/02/13 10:47:53;;;;;;;11.73;7.07;;;5.60;99.90;;;;;;5074973;28;20384;-81
2022/02/13 10:50:20;;;;;;;7.75;6.72;;;5.70;99.90;;;;;;5104081;28;20371;-81
2022/02/13 10:52:47;;;;;;;9.10;7.57;;;5.90;99.90;;;;;;5115069;28;20394;-81
2022/02/13 10:55:14;;;;;;;10.02;6.80;;;5.70;99.90;;;;;;5093883;28;20912;-81
2022/02/13 10:57:41;;;;;;;8.63;6.30;;;5.80;99.90;;;;;;5087595;28;20376;-82
2022/02/13 11:00:09;;;;;;;10.05;7.13;;;6.00;99.90;;;;;;5097019;28;20421;-82
2022/02/13 11:02:37;;;;;;;9.85;6.70;;;6.10;99.90;;;;;;5115692;28;20428;-82
2022/02/13 11:05:03;;;;;;;7.43;6.60;;;6.20;99.90;;;;;;5097707;28;20831;-82
2022/02/13 11:07:31;;;;;;;8.02;6.85;;;6.20;99.90;;;;;;5097310;28;20383;-80
2022/02/13 11:09:58;;;;;;;7.78;6.72;;;6.20;99.90;;;;;;5117264;28;20442;-81
2022/02/13 11:12:24;;;;;;;7.67;6.70;;;6.20;99.90;;;;;;5115414;28;20437;-81
2022/02/13 11:14:50;;;;;;;8.15;6.60;;;6.30;99.90;;;;;;5116168;28;21160;-83
2022/02/13 11:17:34;;;;;;;9.85;6.68;;;6.30;99.90;;;;;;5115557;28;20388;-81
2022/02/13 11:20:03;;;;;;;9.02;6.88;;;6.40;99.90;;;;;;5089223;28;20372;-82
2022/02/13 11:22:35;;;;;;;9.98;6.57;;;6.40;99.90;;;;;;5107866;28;20860;-80
2022/02/13 11:25:00;;;;;;;7.75;6.85;;;6.50;99.90;;;;;;5116073;28;20398;-82
2022/02/13 11:27:27;;;;;;;8.15;6.68;;;6.70;99.90;;;;;;5075121;28;20735;-82
2022/02/13 11:29:55;;;;;;;8.38;6.47;;;6.70;99.90;;;;;;5077586;28;20485;-81
2022/02/13 11:32:48;;;;;;;8.33;6.30;;;6.80;99.90;;;;;;5079687;28;20483;-82
2022/02/13 11:35:15;;;;;;;9.45;6.35;;;6.90;99.90;;;;;;5098726;28;20865;-83
2022/02/13 11:37:50;;;;;;;8.30;6.40;;;7.00;99.90;;;;;;5087885;28;20375;-82
2022/02/13 11:40:47;;;;;;;7.70;6.25;;;7.00;99.90;;;;;;5120129;28;20497;-82
2022/02/13 11:43:14;;;;;;;7.80;6.00;;;7.10;99.90;;;;;;5117869;28;20421;-81
2022/02/13 11:45:48;;;;;;;7.45;6.40;;;7.20;99.90;;;;;;5118467;28;20790;-81
2022/02/13 11:48:32;;;;;;;8.25;6.35;;;7.20;99.90;;;;;;5120393;27;20406;-81
2022/02/13 11:50:58;;;;;;;9.67;6.30;;;7.20;99.90;;;;;;5100935;27;20741;-81
2022/02/13 11:53:25;;;;;;;7.97;6.37;;;7.20;99.90;;;;;;5117443;28;20425;-82
2022/02/13 11:55:53;;;;;;;7.10;5.82;;;7.20;99.90;;;;;;5114543;27;20413;-81
2022/02/13 11:58:18;;;;;;;7.63;6.00;;;7.20;99.90;;;;;;5095641;28;20568;-82
2022/02/13 12:00:47;;;;;;;7.93;5.87;;;7.20;99.90;;;;;;5098279;28;20381;-82
2022/02/13 12:03:28;;;;;;;6.93;5.90;;;7.30;99.90;;;;;;5116657;28;20489;-81
2022/02/13 12:06:03;;;;;;;6.60;5.88;;;7.50;99.90;;;;;;5114230;28;20397;-81
2022/02/13 12:08:29;;;;;;;8.35;6.40;;;7.40;99.90;;;;;;5116942;28;20437;-81
2022/02/13 12:11:08;;;;;;;7.85;5.90;;;7.30;99.90;;;;;;5114754;28;20955;-82
2022/02/13 12:13:36;;;;;;;6.50;5.80;;;7.30;99.90;;;;;;5115449;27;20490;-81
2022/02/13 12:16:08;;;;;;;7.38;5.78;;;7.20;99.90;;;;;;5094998;28;20409;-82
2022/02/13 12:18:34;;;;;;;6.32;5.70;;;7.20;99.90;;;;;;5114410;27;20409;-81
2022/02/13 12:21:03;;;;;;;7.22;5.45;;;7.30;99.90;;;;;;5114149;28;20398;-82
2022/02/13 12:23:30;;;;;;;7.57;5.47;;;7.30;99.90;;;;;;5096399;28;20403;-82
2022/02/13 12:25:56;;;;;;;6.40;5.53;;;7.40;99.90;;;;;;5114649;28;20457;-81
2022/02/13 12:28:29;;;;;;;6.90;5.40;;;7.40;99.90;;;;;;5094575;28;20895;-82
2022/02/13 12:30:56;;;;;;;8.00;5.97;;;7.50;99.90;;;;;;5113485;28;20386;-81
2022/02/13 12:33:25;;;;;;;7.72;5.43;;;7.50;99.90;;;;;;5114357;28;20411;-81
2022/02/13 12:35:53;;;;;;;6.95;5.47;;;7.60;99.90;;;;;;5112377;28;20440;-82
2022/02/13 12:38:18;;;;;;;7.93;5.65;;;7.80;99.90;;;;;;5093573;28;20379;-81